Time;durP1;ratioP1;P1;durP2;ratioP2;P2;SDS_P1;SDS_P2;PMS_P1;PMS_P2;Temp;Humidity;BMP_temperature;BMP_pressure;BME280_temperature;BME280_humidity;BME280_pressure;Samples;Min_cycle;Max_cycle;Signal;HPM_P1;HPM_P2
2023/01/21 00:02:24;;;;;;;68.15;30.27;;;;;;;-0.73;100.00;102745.22;5044070;28;20431;-74
2023/01/21 00:04:49;;;;;;;74.15;30.17;;;;;;;-0.82;100.00;102737.63;5036437;28;20120;-74
2023/01/21 00:07:14;;;;;;;66.47;30.67;;;;;;;-0.79;100.00;102738.34;5040149;28;20072;-74
2023/01/21 00:09:40;;;;;;;64.00;30.88;;;;;;;-0.75;100.00;102745.28;5044223;28;21106;-75
2023/01/21 00:12:05;;;;;;;63.45;31.20;;;;;;;-0.74;100.00;102752.44;5042696;28;20037;-75
2023/01/21 00:14:31;;;;;;;69.35;32.10;;;;;;;-0.76;100.00;102750.75;5045224;28;20025;-74
2023/01/21 00:16:57;;;;;;;64.50;31.42;;;;;;;-0.81;100.00;102761.72;5044775;28;20122;-74
2023/01/21 00:19:23;;;;;;;66.15;32.85;;;;;;;-0.78;100.00;102763.41;5046173;28;20032;-74
2023/01/21 00:21:49;;;;;;;70.63;32.30;;;;;;;-0.83;100.00;102763.66;5043560;28;20124;-74
2023/01/21 00:24:15;;;;;;;71.50;32.20;;;;;;;-0.82;100.00;102769.91;5044795;28;20044;-74
2023/01/21 00:26:40;;;;;;;65.40;32.53;;;;;;;-0.84;100.00;102774.47;5045044;28;20044;-75
2023/01/21 00:29:06;;;;;;;72.93;32.60;;;;;;;-0.75;100.00;102782.09;5043427;28;20029;-74
2023/01/21 00:31:31;;;;;;;74.65;32.08;;;;;;;-0.73;100.00;102783.75;5041932;28;20422;-74
2023/01/21 00:33:57;;;;;;;78.60;34.38;;;;;;;-0.77;100.00;102781.28;5042646;28;20067;-74
2023/01/21 00:36:23;;;;;;;52.22;24.75;;;;;;;-0.76;100.00;102780.34;5041034;28;20028;-75
2023/01/21 00:38:49;;;;;;;70.30;32.75;;;;;;;-0.77;100.00;102784.84;5041112;28;20035;-74
2023/01/21 00:41:16;;;;;;;75.35;34.70;;;;;;;-0.74;100.00;102782.00;5042943;28;20034;-75
2023/01/21 00:43:42;;;;;;;83.05;33.90;;;;;;;-0.74;100.00;102790.09;5042419;28;20117;-75
2023/01/21 00:46:08;;;;;;;68.95;32.70;;;;;;;-0.75;100.00;102788.31;5045546;28;20112;-75
2023/01/21 00:48:35;;;;;;;78.18;34.50;;;;;;;-0.79;100.00;102797.50;5038495;28;20021;-75
2023/01/21 00:51:00;;;;;;;70.07;33.83;;;;;;;-0.82;100.00;102800.34;5036863;28;20064;-74
2023/01/21 00:53:31;;;;;;;69.53;32.92;;;;;;;-0.83;100.00;102795.03;5045938;28;20068;-74
2023/01/21 00:56:02;;;;;;;70.13;30.73;;;;;;;-0.82;100.00;102808.41;5038361;28;20121;-75
2023/01/21 00:58:28;;;;;;;71.95;32.42;;;;;;;-0.81;100.00;102807.47;5043905;28;20047;-74
2023/01/21 01:01:21;;;;;;;56.17;25.83;;;;;;;-0.76;100.00;102818.00;5039931;28;20519;-74
2023/01/21 01:03:47;;;;;;;69.20;31.80;;;;;;;-0.84;100.00;102814.81;5042287;28;20037;-75
2023/01/21 01:06:16;;;;;;;72.22;34.17;;;;;;;-0.91;100.00;102825.00;5039393;28;20561;-75
2023/01/21 01:08:43;;;;;;;80.70;34.67;;;;;;;-0.83;100.00;102828.19;5043898;28;20089;-75
2023/01/21 01:11:11;;;;;;;75.00;34.17;;;;;;;-0.91;100.00;102830.38;5037227;28;20109;-74
2023/01/21 01:13:37;;;;;;;69.00;32.42;;;;;;;-0.92;100.00;102836.72;5045531;28;20052;-74
2023/01/21 01:16:05;;;;;;;74.35;33.15;;;;;;;-0.86;100.00;102839.09;5042413;28;20029;-75
2023/01/21 01:18:33;;;;;;;75.72;32.10;;;;;;;-0.88;100.00;102850.88;5023011;28;20037;-75
2023/01/21 01:20:59;;;;;;;75.47;33.67;;;;;;;-0.90;100.00;102848.28;5042620;28;20100;-75
2023/01/21 01:23:24;;;;;;;70.25;33.33;;;;;;;-0.88;100.00;102843.69;5038055;28;20108;-74
2023/01/21 01:26:01;;;;;;;77.50;32.78;;;;;;;-0.92;100.00;102849.31;5038190;28;20485;-74
2023/01/21 01:28:27;;;;;;;74.63;32.85;;;;;;;-0.94;100.00;102848.47;5042779;28;20473;-74
2023/01/21 01:30:53;;;;;;;83.25;33.42;;;;;;;-0.92;100.00;102860.91;5042198;28;20052;-74
2023/01/21 01:33:18;;;;;;;74.65;32.88;;;;;;;-0.90;100.00;102864.41;5041352;28;20069;-75
2023/01/21 01:35:48;;;;;;;74.95;34.35;;;;;;;-0.93;100.00;102863.66;5036018;28;20108;-74
2023/01/21 01:38:19;;;;;;;71.43;32.60;;;;;;;-0.90;100.00;102885.94;5044625;28;20025;-75
2023/01/21 01:40:46;;;;;;;73.25;35.83;;;;;;;-0.94;100.00;102884.31;5047529;28;20036;-75
2023/01/21 01:43:23;;;;;;;71.53;33.08;;;;;;;-0.96;100.00;102890.72;5025505;28;20497;-76
2023/01/21 01:45:49;;;;;;;61.30;30.33;;;;;;;-0.97;100.00;102889.84;5044041;28;20039;-74
2023/01/21 01:48:21;;;;;;;68.57;31.65;;;;;;;-0.99;100.00;102897.13;5038352;28;20524;-74
2023/01/21 01:50:48;;;;;;;70.38;31.70;;;;;;;-0.95;100.00;102895.16;5039381;28;20388;-74
2023/01/21 01:53:17;;;;;;;75.15;31.83;;;;;;;-1.01;100.00;102893.66;5043775;28;20024;-74
2023/01/21 01:55:43;;;;;;;67.43;31.02;;;;;;;-0.97;100.00;102888.97;5039582;28;20050;-74
2023/01/21 01:58:12;;;;;;;70.00;31.38;;;;;;;-0.98;100.00;102890.78;5045898;28;20029;-74
2023/01/21 02:00:38;;;;;;;69.32;32.33;;;;;;;-1.00;100.00;102892.69;5041788;28;20017;-75
2023/01/21 02:05:49;;;;;;;62.63;31.13;;;;;;;-1.04;100.00;102899.16;5042001;28;20050;-74
2023/01/21 02:08:15;;;;;;;66.18;31.52;;;;;;;-1.02;100.00;102902.63;5042609;28;20527;-74
2023/01/21 02:10:40;;;;;;;70.30;32.47;;;;;;;-1.00;100.00;102900.75;5042641;28;20091;-74
2023/01/21 02:13:06;;;;;;;73.43;32.60;;;;;;;-0.97;100.00;102902.44;5048031;28;20472;-74
2023/01/21 02:15:40;;;;;;;63.67;30.15;;;;;;;-1.01;100.00;102908.91;5042915;28;20033;-75
2023/01/21 02:18:15;;;;;;;72.80;29.20;;;;;;;-1.08;100.00;102910.13;5040571;28;20073;-74
2023/01/21 02:21:03;;;;;;;64.80;29.33;;;;;;;-1.05;100.00;102905.47;5040198;28;20032;-74
2023/01/21 02:23:49;;;;;;;;;;;;;;;-1.11;100.00;102916.53;5044545;28;20055;-75
2023/01/21 02:26:36;;;;;;;65.22;30.58;;;;;;;-1.15;100.00;102917.63;5041405;28;19929;-75
2023/01/21 02:29:27;;;;;;;62.90;29.50;;;;;;;-1.15;100.00;102923.00;5050150;28;20703;-74
2023/01/21 02:32:15;;;;;;;69.55;30.27;;;;;;;-1.12;100.00;102936.31;5047415;28;20079;-74
2023/01/21 02:35:02;;;;;;;65.88;30.58;;;;;;;-1.15;100.00;102928.38;5046564;28;20119;-75
2023/01/21 02:37:50;;;;;;;65.63;27.38;;;;;;;-1.19;100.00;102940.19;5046294;28;20082;-74
2023/01/21 02:40:15;;;;;;;62.42;29.25;;;;;;;-1.10;100.00;102938.88;5045386;28;20026;-74
2023/01/21 02:42:47;;;;;;;61.15;28.83;;;;;;;-1.16;100.00;102942.75;5045873;28;20400;-75
2023/01/21 02:45:21;;;;;;;59.25;27.88;;;;;;;-1.17;100.00;102942.81;5045363;28;20040;-74
2023/01/21 02:48:04;;;;;;;66.00;29.52;;;;;;;-1.21;100.00;102938.53;5046459;28;20024;-75
2023/01/21 02:50:54;;;;;;;71.82;29.02;;;;;;;-1.16;100.00;102950.81;5043918;28;20103;-74
2023/01/21 02:53:30;;;;;;;63.17;28.90;;;;;;;-1.20;100.00;102961.75;5044087;28;20502;-74
2023/01/21 02:56:01;;;;;;;60.35;29.52;;;;;;;-1.28;100.00;102975.59;5039447;28;20706;-74
2023/01/21 02:58:35;;;;;;;60.40;27.85;;;;;;;-1.29;100.00;102971.13;5044317;28;20025;-74
2023/01/21 03:01:48;;;;;;;60.85;27.45;;;;;;;-1.24;100.00;102987.91;5041120;28;20034;-74
2023/01/21 03:04:32;;;;;;;67.70;29.25;;;;;;;-1.27;100.00;102998.81;5027142;28;20627;-74
2023/01/21 03:07:25;;;;;;;61.70;28.77;;;;;;;-1.26;100.00;103005.94;5045759;28;20107;-75
2023/01/21 03:09:53;;;;;;;55.67;28.35;;;;;;;-1.30;100.00;102998.94;5043778;28;20025;-74
2023/01/21 03:12:36;;;;;;;65.10;28.85;;;;;;;-1.31;100.00;103004.38;5042516;28;20036;-74
2023/01/21 03:17:56;;;;;;;64.28;28.35;;;;;;;-1.27;100.00;103008.69;5044239;28;20172;-74
2023/01/21 03:20:31;;;;;;;62.65;29.20;;;;;;;-1.24;100.00;103004.03;5044286;28;20132;-74
2023/01/21 03:23:01;;;;;;;62.40;30.10;;;;;;;-1.24;100.00;103005.88;5045719;28;20032;-74
2023/01/21 03:25:30;;;;;;;59.58;28.80;;;;;;;-1.30;100.00;103014.22;5046195;28;20366;-74
2023/01/21 03:27:59;;;;;;;62.42;28.85;;;;;;;-1.35;100.00;103002.81;5043095;28;20048;-74
2023/01/21 03:30:26;;;;;;;58.30;27.17;;;;;;;-1.40;100.00;103003.00;5045419;28;20186;-74
2023/01/21 03:32:54;;;;;;;62.88;27.10;;;;;;;-1.45;100.00;103014.91;5041496;28;20408;-74
2023/01/21 03:35:25;;;;;;;57.33;26.90;;;;;;;-1.48;100.00;103009.66;5046635;28;20423;-74
2023/01/21 03:38:07;;;;;;;57.80;27.63;;;;;;;-1.45;100.00;103017.59;5048048;28;20483;-75
2023/01/21 03:40:42;;;;;;;56.58;26.88;;;;;;;-1.50;100.00;103015.06;5047349;28;20079;-74
2023/01/21 03:43:08;;;;;;;62.00;28.20;;;;;;;-1.48;100.00;103009.66;5045488;28;20124;-74
2023/01/21 03:46:02;;;;;;;47.83;21.92;;;;;;;-1.53;100.00;103011.66;5044498;28;20029;-75
2023/01/21 03:48:41;;;;;;;55.17;25.70;;;;;;;-1.52;100.00;103014.28;5041444;28;20550;-74
2023/01/21 03:51:13;;;;;;;62.25;26.02;;;;;;;-1.48;100.00;103015.91;5044144;28;20029;-74
2023/01/21 03:53:39;;;;;;;55.45;26.75;;;;;;;-1.47;100.00;103014.06;5043968;28;20082;-74
2023/01/21 03:56:04;;;;;;;62.50;27.63;;;;;;;-1.49;100.00;103013.28;5045385;28;20037;-74
2023/01/21 03:58:30;;;;;;;62.03;27.95;;;;;;;-1.50;100.00;103019.59;5053021;28;20124;-74
2023/01/21 04:00:56;;;;;;;46.20;22.50;;;;;;;-1.47;100.00;103019.44;5042990;28;20056;-74
2023/01/21 04:03:23;;;;;;;59.58;27.98;;;;;;;-1.51;100.00;103024.09;5043571;28;20463;-74
2023/01/21 04:05:48;;;;;;;65.38;27.70;;;;;;;-1.49;100.00;103030.28;5037410;28;20025;-75
2023/01/21 04:08:13;;;;;;;61.75;27.20;;;;;;;-1.45;100.00;103036.38;5043491;28;20036;-74
2023/01/21 04:10:39;;;;;;;56.63;27.08;;;;;;;-1.53;100.00;103039.41;5044049;28;20087;-74
2023/01/21 04:13:05;;;;;;;60.10;27.85;;;;;;;-1.50;100.00;103049.16;5045249;28;20039;-74
2023/01/21 04:15:30;;;;;;;49.20;21.80;;;;;;;-1.46;100.00;103048.09;5041200;28;20112;-74
2023/01/21 04:17:55;;;;;;;67.38;27.85;;;;;;;-1.48;100.00;103048.16;5044026;28;20024;-74
2023/01/21 04:20:21;;;;;;;58.15;28.92;;;;;;;-1.43;100.00;103048.81;5044706;28;20491;-74
2023/01/21 04:22:46;;;;;;;68.95;29.50;;;;;;;-1.52;100.00;103059.97;5042139;28;20033;-75
2023/01/21 04:25:13;;;;;;;66.30;31.08;;;;;;;-1.52;100.00;103059.97;5042542;28;20105;-74
2023/01/21 04:27:38;;;;;;;61.95;29.65;;;;;;;-1.54;100.00;103055.59;5043668;28;20025;-74
2023/01/21 04:30:05;;;;;;;62.40;28.67;;;;;;;-1.60;100.00;103059.44;5043039;28;20036;-75
2023/01/21 04:32:30;;;;;;;62.45;30.88;;;;;;;-1.69;100.00;103054.44;5046355;28;20052;-74
2023/01/21 04:34:56;;;;;;;59.17;28.83;;;;;;;-1.70;100.00;103060.75;5041417;28;20060;-75
2023/01/21 04:37:21;;;;;;;64.93;31.30;;;;;;;-1.76;100.00;103061.03;5040695;28;20059;-75
2023/01/21 04:39:47;;;;;;;67.40;29.45;;;;;;;-1.77;100.00;103061.94;5041880;28;20441;-75
2023/01/21 04:42:12;;;;;;;57.67;28.83;;;;;;;-1.80;100.00;103056.72;5042492;28;20021;-74
2023/01/21 04:44:37;;;;;;;59.00;29.25;;;;;;;-1.81;100.00;103054.97;5043685;28;20116;-74
2023/01/21 04:47:03;;;;;;;63.75;28.35;;;;;;;-1.83;100.00;103064.88;5040450;28;20037;-74
2023/01/21 04:49:28;;;;;;;56.60;27.75;;;;;;;-1.81;100.00;103059.44;5046665;28;20043;-74
2023/01/21 04:51:54;;;;;;;58.67;27.60;;;;;;;-1.81;100.00;103064.81;5038604;28;20021;-75
2023/01/21 04:54:19;;;;;;;62.00;28.30;;;;;;;-1.80;100.00;103051.34;5044144;28;20087;-74
2023/01/21 04:56:44;;;;;;;71.80;28.55;;;;;;;-1.83;100.00;103047.91;5046068;28;20392;-75
2023/01/21 04:59:10;;;;;;;67.32;28.98;;;;;;;-1.86;100.00;103051.59;5036930;28;20044;-74
2023/01/21 05:01:35;;;;;;;64.28;28.38;;;;;;;-1.84;100.00;103052.41;5041830;28;20029;-74
2023/01/21 05:04:01;;;;;;;58.38;29.40;;;;;;;-1.88;100.00;103052.59;5047830;28;20051;-74
2023/01/21 05:06:26;;;;;;;60.40;28.63;;;;;;;-1.90;100.00;103067.88;5046072;28;20868;-74
2023/01/21 05:08:52;;;;;;;61.33;28.85;;;;;;;-1.91;100.00;103071.50;5043792;28;20029;-74
2023/01/21 05:11:19;;;;;;;56.72;27.90;;;;;;;-1.90;100.00;103060.72;5041419;28;20438;-74
2023/01/21 05:13:44;;;;;;;61.53;28.95;;;;;;;-1.88;100.00;103072.25;5042266;28;20488;-75
2023/01/21 05:16:10;;;;;;;64.68;28.77;;;;;;;-1.81;100.00;103076.44;5045912;28;20108;-74
2023/01/21 05:18:39;;;;;;;63.20;28.40;;;;;;;-1.81;100.00;103078.25;5042753;28;20029;-75
2023/01/21 05:21:05;;;;;;;65.25;28.63;;;;;;;-1.87;100.00;103076.69;5035782;28;20037;-74
2023/01/21 05:23:30;;;;;;;47.72;22.45;;;;;;;-1.85;100.00;103087.38;5038563;28;20047;-76
2023/01/21 05:25:56;;;;;;;57.78;27.67;;;;;;;-1.88;100.00;103090.19;5039205;28;20043;-74
2023/01/21 05:28:21;;;;;;;63.55;29.63;;;;;;;-1.82;100.00;103084.56;5036739;28;20380;-75
2023/01/21 05:30:47;;;;;;;63.65;27.50;;;;;;;-1.89;100.00;103083.94;5043413;28;20071;-75
2023/01/21 05:33:13;;;;;;;60.08;28.55;;;;;;;-1.91;100.00;103088.50;5044280;28;20091;-75
2023/01/21 05:35:38;;;;;;;55.22;26.92;;;;;;;-1.86;100.00;103097.25;5025093;28;20040;-74
2023/01/21 05:38:04;;;;;;;66.95;29.67;;;;;;;-1.90;100.00;103094.72;5039622;28;20032;-75
2023/01/21 05:40:29;;;;;;;68.03;30.33;;;;;;;-1.90;100.00;103105.47;5043233;28;20087;-75
2023/01/21 05:42:55;;;;;;;58.63;28.52;;;;;;;-1.90;100.00;103100.09;5042841;28;20369;-76
2023/01/21 05:45:20;;;;;;;62.65;26.73;;;;;;;-1.94;100.00;103103.88;5035970;28;20140;-74
2023/01/21 05:47:46;;;;;;;63.03;29.45;;;;;;;-2.01;100.00;103105.94;5048897;28;20036;-75
2023/01/21 05:50:12;;;;;;;68.18;30.30;;;;;;;-2.03;100.00;103107.78;5023868;28;20025;-75
2023/01/21 05:52:37;;;;;;;60.85;28.58;;;;;;;-2.08;100.00;103099.06;5043376;28;20037;-75
2023/01/21 05:55:05;;;;;;;61.88;28.67;;;;;;;-2.09;100.00;103102.66;5043936;28;20025;-75
2023/01/21 05:57:31;;;;;;;61.08;27.92;;;;;;;-2.02;100.00;103120.28;5045100;28;20492;-74
2023/01/21 05:59:57;;;;;;;66.70;28.63;;;;;;;-1.98;100.00;103121.88;5026872;28;20692;-75
2023/01/21 06:02:22;;;;;;;75.32;30.25;;;;;;;-2.00;100.00;103121.09;5041716;28;20269;-75
2023/01/21 06:04:48;;;;;;;60.67;27.45;;;;;;;-1.97;100.00;103131.72;5041483;28;20086;-75
2023/01/21 06:07:14;;;;;;;61.40;28.05;;;;;;;-2.01;100.00;103132.78;5038083;28;20067;-75
2023/01/21 06:09:39;;;;;;;61.85;27.05;;;;;;;-2.03;100.00;103129.25;5042480;28;20044;-75
2023/01/21 06:12:05;;;;;;;62.17;27.77;;;;;;;-2.07;100.00;103130.34;5040812;28;20025;-76
2023/01/21 06:14:30;;;;;;;67.68;30.02;;;;;;;-2.06;100.00;103128.50;5035996;28;20024;-75
2023/01/21 06:16:56;;;;;;;79.22;31.08;;;;;;;-2.07;100.00;103137.50;5038446;28;20025;-76
2023/01/21 06:19:21;;;;;;;60.30;27.02;;;;;;;-2.08;100.00;103147.38;5045337;28;20059;-76
2023/01/21 06:21:47;;;;;;;68.03;28.55;;;;;;;-2.11;100.00;103143.91;5037184;28;20435;-74
2023/01/21 06:24:12;;;;;;;59.70;27.40;;;;;;;-2.15;100.00;103148.53;5042631;28;20028;-75
2023/01/21 06:26:38;;;;;;;64.80;29.95;;;;;;;-2.15;100.00;103155.72;5041999;28;20032;-75
2023/01/21 06:29:03;;;;;;;57.50;27.67;;;;;;;-2.12;100.00;103155.59;5044319;28;20056;-76
2023/01/21 06:31:29;;;;;;;61.67;29.17;;;;;;;-2.07;100.00;103175.97;5044950;28;20029;-75
2023/01/21 06:33:56;;;;;;;57.95;29.05;;;;;;;-2.02;100.00;103186.50;5040655;28;20025;-75
2023/01/21 06:36:23;;;;;;;70.40;29.70;;;;;;;-2.06;100.00;103180.41;5042866;28;20504;-75
2023/01/21 06:38:48;;;;;;;64.75;31.05;;;;;;;-2.11;100.00;103190.44;5044485;28;20485;-75
2023/01/21 06:41:14;;;;;;;72.18;31.17;;;;;;;-2.10;100.00;103192.19;5038758;28;20033;-76
2023/01/21 06:43:39;;;;;;;66.88;29.25;;;;;;;-2.08;100.00;103200.19;5036631;28;20065;-75
2023/01/21 06:46:04;;;;;;;67.32;31.20;;;;;;;-2.11;100.00;103201.16;5045418;28;20540;-75
2023/01/21 06:48:30;;;;;;;61.22;29.08;;;;;;;-2.17;100.00;103205.88;5046378;28;20071;-75
2023/01/21 06:50:55;;;;;;;72.55;30.15;;;;;;;-2.16;100.00;103207.63;5041125;28;20268;-75
2023/01/21 06:53:21;;;;;;;66.60;28.60;;;;;;;-2.22;100.00;103214.13;5045357;28;20036;-75
2023/01/21 06:55:46;;;;;;;65.82;29.63;;;;;;;-2.24;100.00;103220.47;5045266;28;20611;-75
2023/01/21 06:58:12;;;;;;;59.88;29.63;;;;;;;-2.23;100.00;103225.81;5040613;28;20029;-76
2023/01/21 07:00:37;;;;;;;69.75;30.25;;;;;;;-2.24;100.00;103221.38;5045671;28;20033;-76
2023/01/21 07:03:03;;;;;;;66.45;31.30;;;;;;;-2.25;100.00;103218.75;5038917;28;20035;-75
2023/01/21 07:05:28;;;;;;;65.88;30.40;;;;;;;-2.19;100.00;103235.47;5036876;28;20326;-75
2023/01/21 07:07:54;;;;;;;61.30;29.00;;;;;;;-2.18;100.00;103229.19;5037341;28;20770;-75
2023/01/21 07:10:20;;;;;;;66.68;31.52;;;;;;;-2.16;100.00;103231.78;5037545;28;20076;-74
2023/01/21 07:12:46;;;;;;;70.75;31.27;;;;;;;-2.16;100.00;103230.00;5028926;28;20053;-75
2023/01/21 07:15:11;;;;;;;69.22;31.58;;;;;;;-2.18;100.00;103237.25;5045158;28;20063;-75
2023/01/21 07:17:36;;;;;;;68.07;31.02;;;;;;;-2.23;100.00;103228.47;5046836;28;20029;-75
2023/01/21 07:20:03;;;;;;;68.20;29.40;;;;;;;-2.29;100.00;103234.09;5042047;28;20128;-74
2023/01/21 07:22:29;;;;;;;67.85;30.15;;;;;;;-2.30;100.00;103243.03;5047619;28;20427;-74
2023/01/21 07:24:55;;;;;;;49.38;23.35;;;;;;;-2.30;100.00;103245.72;5044078;28;20045;-75
2023/01/21 07:27:20;;;;;;;75.20;30.83;;;;;;;-2.32;100.00;103244.91;5044463;28;20037;-75
2023/01/21 07:29:46;;;;;;;72.00;30.23;;;;;;;-2.26;100.00;103247.38;5039998;28;20392;-75
2023/01/21 07:32:11;;;;;;;54.95;25.90;;;;;;;-2.30;100.00;103244.88;5046987;28;20316;-76
2023/01/21 07:34:37;;;;;;;70.78;32.25;;;;;;;-2.28;100.00;103251.94;5044562;28;20040;-75
2023/01/21 07:37:02;;;;;;;76.70;31.45;;;;;;;-2.32;100.00;103252.97;5042634;28;20040;-75
2023/01/21 07:39:28;;;;;;;66.75;29.85;;;;;;;-2.35;100.00;103249.53;5045950;28;20033;-76
2023/01/21 07:41:53;;;;;;;67.03;30.20;;;;;;;-2.35;100.00;103261.13;5043900;28;20034;-75
2023/01/21 07:44:18;;;;;;;64.18;31.10;;;;;;;-2.35;100.00;103266.47;5045920;28;20111;-75
2023/01/21 07:46:44;;;;;;;64.93;29.70;;;;;;;-2.27;100.00;103271.56;5044663;28;20064;-75
2023/01/21 07:49:11;;;;;;;73.38;32.78;;;;;;;-2.28;100.00;103273.41;5047357;28;20036;-75
2023/01/21 07:51:37;;;;;;;66.43;32.03;;;;;;;-2.26;100.00;103267.97;5044385;28;20022;-76
2023/01/21 07:54:02;;;;;;;69.03;31.00;;;;;;;-2.26;100.00;103271.53;5043223;28;20021;-75
2023/01/21 07:56:28;;;;;;;73.07;32.08;;;;;;;-2.26;100.00;103276.88;5042910;28;20095;-76
2023/01/21 07:58:53;;;;;;;65.53;30.13;;;;;;;-2.25;100.00;103275.09;5046212;28;20391;-75
2023/01/21 08:01:19;;;;;;;64.75;29.05;;;;;;;-2.25;100.00;103283.16;5039192;28;20032;-76
2023/01/21 08:03:44;;;;;;;61.78;29.52;;;;;;;-2.23;100.00;103284.84;5044040;28;20505;-76
2023/01/21 08:06:10;;;;;;;69.43;31.20;;;;;;;-2.17;100.00;103292.66;5044758;28;20053;-76
2023/01/21 08:08:35;;;;;;;78.43;32.28;;;;;;;-2.19;100.00;103294.50;5039795;28;20048;-75
2023/01/21 08:11:01;;;;;;;71.18;31.40;;;;;;;-2.19;100.00;103299.88;5042969;28;20115;-76
2023/01/21 08:13:26;;;;;;;66.40;30.00;;;;;;;-2.12;100.00;103304.09;5043421;28;20044;-76
2023/01/21 08:15:54;;;;;;;70.07;30.73;;;;;;;-2.10;100.00;103309.44;5044384;28;20086;-76
2023/01/21 08:18:23;;;;;;;74.03;30.33;;;;;;;-2.11;100.00;103308.53;5041103;28;20033;-76
2023/01/21 08:20:57;;;;;;;75.68;34.15;;;;;;;-2.08;100.00;103329.03;5047312;28;20078;-76
2023/01/21 08:23:23;;;;;;;74.25;32.15;;;;;;;-2.06;100.00;103322.66;5050416;28;20032;-76
2023/01/21 08:25:48;;;;;;;70.97;32.77;;;;;;;-2.01;100.00;103322.47;5052112;28;20040;-76
2023/01/21 08:28:13;;;;;;;71.63;31.63;;;;;;;-2.01;100.00;103326.06;5043646;28;20033;-76
2023/01/21 08:30:39;;;;;;;76.55;31.73;;;;;;;-1.95;100.00;103324.94;5046921;28;20027;-76
2023/01/21 08:33:04;;;;;;;72.65;33.63;;;;;;;-1.92;100.00;103333.78;5037632;28;20033;-76
2023/01/21 08:35:30;;;;;;;72.57;31.60;;;;;;;-1.91;100.00;103326.59;5037257;28;20021;-76
2023/01/21 08:37:56;;;;;;;68.75;32.15;;;;;;;-1.83;100.00;103335.25;5038593;28;20040;-76
2023/01/21 08:40:25;;;;;;;66.03;32.05;;;;;;;-1.85;100.00;103335.28;5036125;28;20060;-75
2023/01/21 08:42:50;;;;;;;67.97;31.55;;;;;;;-1.84;100.00;103339.72;5041712;28;20033;-75
2023/01/21 08:45:16;;;;;;;67.30;30.15;;;;;;;-1.87;100.00;103344.34;5044194;28;20039;-76
2023/01/21 08:47:41;;;;;;;81.82;33.13;;;;;;;-1.84;100.00;103346.91;5043040;28;20041;-76
2023/01/21 08:50:08;;;;;;;70.32;31.27;;;;;;;-1.81;100.00;103350.38;5042256;28;20031;-76
2023/01/21 08:52:33;;;;;;;64.03;31.08;;;;;;;-1.74;100.00;103349.19;5057334;28;20084;-75
2023/01/21 08:54:59;;;;;;;71.88;33.80;;;;;;;-1.75;100.00;103354.63;5042692;28;20037;-76
2023/01/21 08:57:26;;;;;;;83.45;34.78;;;;;;;-1.71;100.00;103367.88;5042089;28;20562;-75
2023/01/21 08:59:51;;;;;;;73.82;34.53;;;;;;;-1.72;100.00;103366.13;5040378;28;20054;-75
2023/01/21 09:02:17;;;;;;;75.05;32.90;;;;;;;-1.70;100.00;103372.31;5042588;28;20032;-75
2023/01/21 09:04:42;;;;;;;73.00;33.08;;;;;;;-1.65;100.00;103367.66;5045054;28;20108;-75
2023/01/21 09:07:08;;;;;;;76.75;32.72;;;;;;;-1.56;100.00;103382.56;5037301;28;20530;-75
2023/01/21 09:09:33;;;;;;;70.47;31.15;;;;;;;-1.58;100.00;103374.53;5043166;28;20090;-76
2023/01/21 09:11:58;;;;;;;68.72;32.42;;;;;;;-1.51;100.00;103372.50;5040778;28;20021;-74
2023/01/21 09:14:25;;;;;;;71.85;32.35;;;;;;;-1.62;100.00;103383.66;5041558;28;20020;-74
2023/01/21 09:16:50;;;;;;;76.78;33.78;;;;;;;-1.54;100.00;103384.25;5043882;28;20579;-74
2023/01/21 09:19:16;;;;;;;87.20;36.42;;;;;;;-1.63;100.00;103384.59;5038478;28;20108;-75
2023/01/21 09:21:41;;;;;;;73.68;34.17;;;;;;;-1.63;100.00;103381.91;5045817;28;20547;-76
2023/01/21 09:24:07;;;;;;;76.32;33.42;;;;;;;-1.59;100.00;103388.91;5042104;28;20021;-75
2023/01/21 09:26:33;;;;;;;82.38;33.25;;;;;;;-1.62;100.00;103383.66;5043633;28;20029;-77
2023/01/21 09:28:59;;;;;;;78.10;34.92;;;;;;;-1.62;100.00;103386.31;5040178;28;20037;-76
2023/01/21 09:31:27;;;;;;;76.63;34.75;;;;;;;-1.72;100.00;103395.66;5042946;28;20033;-76
2023/01/21 09:33:58;;;;;;;82.00;34.28;;;;;;;-1.63;100.00;103398.00;5050638;28;20036;-75
2023/01/21 09:36:27;;;;;;;72.10;33.25;;;;;;;-1.58;100.00;103401.41;5042118;28;20238;-75
2023/01/21 09:38:53;;;;;;;79.35;34.92;;;;;;;-1.57;100.00;103402.25;5041235;28;20571;-76
2023/01/21 09:41:28;;;;;;;65.90;25.48;;;;;;;-1.67;100.00;103401.75;5036107;28;20079;-76
2023/01/21 09:43:57;;;;;;;105.15;35.53;;;;;;;-1.77;100.00;103404.84;5037803;28;20025;-75
2023/01/21 09:46:58;;;;;;;97.47;34.22;;;;;;;-1.89;100.00;103395.41;5034453;28;20040;-76
2023/01/21 09:49:36;;;;;;;81.78;34.42;;;;;;;-1.76;100.00;103409.28;5035245;28;20041;-76
2023/01/21 09:52:22;;;;;;;126.68;31.50;;;;;;;-1.80;100.00;103421.94;5038868;28;20564;-76
2023/01/21 09:54:48;;;;;;;132.07;31.58;;;;;;;-1.97;100.00;103426.16;5040864;28;20115;-76
2023/01/21 09:57:36;;;;;;;71.75;29.17;;;;;;;-1.96;100.00;103428.78;5035964;28;20576;-75
2023/01/21 10:00:05;;;;;;;92.20;29.45;;;;;;;-1.82;100.00;103437.22;5018784;28;20488;-76
2023/01/21 10:02:41;;;;;;;96.57;29.60;;;;;;;-1.93;100.00;103423.28;5038395;28;20082;-76
2023/01/21 10:05:09;;;;;;;77.35;27.35;;;;;;;-1.81;100.00;103441.69;5032759;28;20032;-75
2023/01/21 10:07:47;;;;;;;68.38;28.40;;;;;;;-1.81;100.00;103443.47;5043968;28;20048;-75
2023/01/21 10:10:31;;;;;;;62.65;28.48;;;;;;;-1.70;100.00;103444.84;5038199;28;20037;-75
2023/01/21 10:13:38;;;;;;;64.68;28.13;;;;;;;-1.64;100.00;103450.00;5056014;28;20078;-75
2023/01/21 10:16:28;;;;;;;58.95;28.50;;;;;;;-1.53;100.00;103442.41;5039926;28;20481;-76
2023/01/21 10:18:56;;;;;;;64.95;27.77;;;;;;;-1.53;100.00;103434.34;5044533;28;20024;-76
2023/01/21 10:21:30;;;;;;;63.40;27.88;;;;;;;-1.46;100.00;103438.56;5038236;28;20044;-75
2023/01/21 10:24:08;;;;;;;55.83;27.08;;;;;;;-1.31;100.00;103435.28;5040124;28;20055;-76
2023/01/21 10:26:34;;;;;;;;;;;;;;;-1.37;100.00;103443.59;5041661;28;20056;-76
2023/01/21 10:29:00;;;;;;;57.28;28.63;;;;;;;-1.31;100.00;103448.75;5039714;28;19964;-75
2023/01/21 10:31:27;;;;;;;62.05;29.08;;;;;;;-1.27;100.00;103445.00;5042502;28;20068;-76
2023/01/21 10:33:54;;;;;;;66.38;30.58;;;;;;;-1.29;100.00;103440.63;5039328;28;20025;-75
2023/01/21 10:36:40;;;;;;;70.57;30.92;;;;;;;-1.27;100.00;103447.69;5040898;28;20021;-76
2023/01/21 10:39:27;;;;;;;65.85;29.27;;;;;;;-1.08;100.00;103454.09;5043551;28;20090;-75
2023/01/21 10:42:46;;;;;;;72.03;31.00;;;;;;;-0.89;100.00;103433.63;5038154;28;20163;-75
2023/01/21 10:45:30;;;;;;;70.25;29.15;;;;;;;-0.81;100.00;103439.56;4998374;28;20034;-75
2023/01/21 10:48:24;;;;;;;72.95;30.40;;;;;;;-0.69;100.00;103443.59;5045703;28;20120;-75
2023/01/21 10:51:05;;;;;;;69.85;31.20;;;;;;;-0.62;100.00;103440.59;5028548;28;20059;-75
2023/01/21 10:54:21;;;;;;;72.82;30.77;;;;;;;-0.59;100.00;103445.81;5040136;28;20029;-75
2023/01/21 10:56:58;;;;;;;75.80;32.70;;;;;;;-0.66;100.00;103449.72;5044858;28;20049;-75
2023/01/21 10:59:26;;;;;;;;;;;;;;;-0.68;100.00;103460.53;5049055;28;20492;-74
2023/01/21 11:02:28;;;;;;;81.05;34.05;;;;;;;-0.52;100.00;103449.16;5038446;28;20006;-75
2023/01/21 11:05:04;;;;;;;76.93;32.22;;;;;;;-0.39;100.00;103450.41;5042581;28;20030;-75
2023/01/21 11:07:38;;;;;;;75.03;31.85;;;;;;;-0.31;100.00;103444.63;5041561;28;20041;-75
2023/01/21 11:10:05;;;;;;;76.22;33.00;;;;;;;-0.30;100.00;103437.44;5041888;28;20029;-75
2023/01/21 11:12:31;;;;;;;;;;;;;;;-0.23;100.00;103441.63;5040101;28;20421;-74
2023/01/21 11:15:00;;;;;;;75.82;31.95;;;;;;;-0.26;100.00;103452.53;5044143;28;19908;-75
2023/01/21 11:17:33;;;;;;;74.55;32.63;;;;;;;-0.14;100.00;103449.31;5046243;28;20480;-74
2023/01/21 11:20:01;;;;;;;73.53;32.38;;;;;;;-0.12;100.00;103448.31;5040791;28;20701;-75